createdAt,value
2023-03-13T00:01:35.055Z,9.60
2023-03-13T00:04:02.739Z,9.60
2023-03-13T00:06:40.565Z,9.60
2023-03-13T00:09:11.538Z,9.60
2023-03-13T00:11:38.489Z,9.60
2023-03-13T00:14:07.021Z,9.60
2023-03-13T00:16:37.559Z,9.60
2023-03-13T00:19:06.981Z,9.60
2023-03-13T00:21:34.560Z,9.70
2023-03-13T00:24:01.824Z,9.60
2023-03-13T00:26:32.266Z,9.60
2023-03-13T00:29:02.386Z,9.60
2023-03-13T00:31:35.470Z,9.60
2023-03-13T00:34:04.225Z,9.50
2023-03-13T00:36:36.094Z,9.50
2023-03-13T00:39:06.298Z,9.60
2023-03-13T00:41:35.950Z,9.50
2023-03-13T00:44:06.192Z,9.50
2023-03-13T00:46:33.189Z,9.60
2023-03-13T00:49:00.115Z,9.60
2023-03-13T00:51:28.317Z,9.50
2023-03-13T00:54:03.877Z,9.50
2023-03-13T00:56:30.675Z,9.50
2023-03-13T00:58:59.212Z,9.50
2023-03-13T01:01:32.855Z,9.60
2023-03-13T01:04:07.722Z,9.60
2023-03-13T01:06:44.725Z,9.60
2023-03-13T01:09:15.653Z,9.60
2023-03-13T01:11:44.971Z,9.60
2023-03-13T01:14:20.469Z,9.70
2023-03-13T01:16:47.505Z,9.60
2023-03-13T01:19:17.986Z,9.70
2023-03-13T01:21:45.784Z,9.80
2023-03-13T01:24:13.045Z,9.70
2023-03-13T01:26:40.096Z,9.60
2023-03-13T01:29:06.864Z,9.70
2023-03-13T01:31:38.221Z,9.70
2023-03-13T01:34:06.701Z,9.70
2023-03-13T01:36:36.694Z,9.80
2023-03-13T01:39:04.933Z,9.70
2023-03-13T01:41:35.052Z,9.80
2023-03-13T01:44:01.878Z,9.70
2023-03-13T01:46:30.422Z,9.80
2023-03-13T01:49:33.222Z,9.80
2023-03-13T01:52:05.880Z,9.80
2023-03-13T01:54:51.767Z,9.80
2023-03-13T01:57:25.609Z,9.90
2023-03-13T02:00:26.736Z,9.90
2023-03-13T02:03:07.092Z,9.90
2023-03-13T02:05:35.330Z,10.00
2023-03-13T02:08:10.252Z,10.00
2023-03-13T02:10:58.682Z,10.00
2023-03-13T02:13:26.267Z,10.10
2023-03-13T02:15:55.481Z,10.10
2023-03-13T02:18:22.501Z,10.10
2023-03-13T02:20:55.275Z,10.10
2023-03-13T02:23:47.157Z,10.20
2023-03-13T02:26:19.870Z,10.20
2023-03-13T02:28:47.649Z,10.20
2023-03-13T02:31:14.529Z,10.20
2023-03-13T02:33:47.519Z,10.30
2023-03-13T02:36:17.734Z,10.30
2023-03-13T02:38:55.100Z,10.30
2023-03-13T02:41:24.534Z,10.40
2023-03-13T02:43:51.334Z,10.40
2023-03-13T02:46:21.283Z,10.50
2023-03-13T02:48:52.775Z,10.40
2023-03-13T02:51:31.236Z,10.50
2023-03-13T02:54:10.452Z,10.60
2023-03-13T02:56:41.892Z,10.70
2023-03-13T02:59:08.661Z,10.70
2023-03-13T03:01:35.431Z,10.70
2023-03-13T03:04:02.172Z,10.80
2023-03-13T03:06:28.968Z,10.90
2023-03-13T03:08:58.865Z,10.90
2023-03-13T03:11:25.619Z,10.90
2023-03-13T03:13:52.354Z,11.00
2023-03-13T03:16:19.171Z,11.10
2023-03-13T03:18:46.142Z,11.10
2023-03-13T03:21:13.534Z,11.20
2023-03-13T03:23:40.321Z,11.20
2023-03-13T03:26:07.862Z,11.30
2023-03-13T03:28:37.674Z,11.30
2023-03-13T03:31:13.824Z,11.30
2023-03-13T03:33:46.622Z,11.40
2023-03-13T03:36:20.846Z,11.40
2023-03-13T03:38:48.527Z,11.40
2023-03-13T03:41:19.329Z,11.50
2023-03-13T03:43:47.524Z,11.50
2023-03-13T03:46:17.890Z,11.50
2023-03-13T03:48:46.833Z,11.50
2023-03-13T03:51:13.694Z,11.60
2023-03-13T03:53:40.621Z,11.60
2023-03-13T03:56:09.056Z,11.60
2023-03-13T03:58:37.883Z,11.60
2023-03-13T04:01:05.244Z,11.60
2023-03-13T04:03:32.692Z,11.70
2023-03-13T04:05:59.533Z,11.60
2023-03-13T04:08:26.581Z,11.70
2023-03-13T04:10:53.404Z,11.70
2023-03-13T04:13:20.206Z,11.70
2023-03-13T04:15:48.760Z,11.70
2023-03-13T04:18:21.649Z,11.80
2023-03-13T04:20:48.411Z,11.90
2023-03-13T04:23:15.161Z,11.80
2023-03-13T04:25:42.008Z,11.90
2023-03-13T04:28:09.293Z,11.90
2023-03-13T04:30:36.110Z,11.90
2023-03-13T04:33:02.985Z,12.00
2023-03-13T04:35:29.895Z,11.90
2023-03-13T04:37:56.655Z,11.90
2023-03-13T04:40:23.448Z,11.90
2023-03-13T04:42:50.170Z,11.90
2023-03-13T04:45:16.956Z,11.90
2023-03-13T04:47:43.683Z,12.00
2023-03-13T04:50:10.844Z,12.00
2023-03-13T04:52:37.691Z,12.00
2023-03-13T04:55:06.628Z,12.00
2023-03-13T04:57:33.389Z,12.10
2023-03-13T05:00:00.191Z,12.10
2023-03-13T05:02:27.057Z,12.10
2023-03-13T05:04:56.495Z,12.10
2023-03-13T05:07:23.215Z,12.10
2023-03-13T05:09:49.959Z,12.20
2023-03-13T05:12:28.745Z,12.20
2023-03-13T05:14:55.598Z,12.30
2023-03-13T05:17:22.368Z,12.30
2023-03-13T05:19:49.175Z,12.30
2023-03-13T05:22:15.882Z,12.30
2023-03-13T05:24:43.721Z,12.30
2023-03-13T05:27:13.381Z,12.40
2023-03-13T05:29:40.193Z,12.40
2023-03-13T05:32:12.973Z,12.40
2023-03-13T05:34:46.848Z,12.40
2023-03-13T05:37:13.812Z,12.40
2023-03-13T05:39:43.852Z,12.50
2023-03-13T05:42:10.611Z,12.50
2023-03-13T05:44:40.254Z,12.50
2023-03-13T05:47:07.127Z,12.60
2023-03-13T05:49:33.913Z,12.60
2023-03-13T05:52:03.068Z,12.60
2023-03-13T05:54:32.909Z,12.60
2023-03-13T05:56:59.647Z,12.70
2023-03-13T05:59:29.483Z,12.60
2023-03-13T06:01:56.266Z,12.60
2023-03-13T06:04:23.177Z,12.70
2023-03-13T06:06:49.973Z,12.70
2023-03-13T06:09:16.778Z,12.70
2023-03-13T06:11:45.534Z,12.70
2023-03-13T06:14:12.416Z,12.70
2023-03-13T06:16:39.290Z,12.70
2023-03-13T06:19:06.105Z,12.80
2023-03-13T06:21:35.951Z,12.80
2023-03-13T06:24:02.797Z,12.70
2023-03-13T06:26:32.438Z,12.80
2023-03-13T06:28:59.281Z,12.80
2023-03-13T06:31:32.540Z,12.80
2023-03-13T06:33:59.396Z,12.80
2023-03-13T06:36:26.467Z,12.80
2023-03-13T06:38:53.242Z,12.70
2023-03-13T06:41:20.082Z,12.80
2023-03-13T06:43:46.849Z,12.80
2023-03-13T06:46:20.474Z,12.80
2023-03-13T06:48:47.470Z,12.80
2023-03-13T06:51:21.863Z,12.80
2023-03-13T06:53:52.451Z,12.90
2023-03-13T06:56:22.484Z,12.80
2023-03-13T06:58:50.050Z,12.70
2023-03-13T07:01:20.056Z,12.80
2023-03-13T07:03:49.047Z,12.80
2023-03-13T07:06:21.980Z,12.70
2023-03-13T07:08:51.737Z,12.80
2023-03-13T07:11:18.924Z,12.70
2023-03-13T07:13:45.680Z,12.60
2023-03-13T07:16:16.425Z,12.60
2023-03-13T07:18:44.700Z,12.50
2023-03-13T07:21:11.968Z,12.40
2023-03-13T07:23:39.250Z,12.40
2023-03-13T07:26:14.954Z,12.40
2023-03-13T07:28:42.756Z,12.30
2023-03-13T07:31:15.434Z,12.40
2023-03-13T07:33:45.486Z,12.30
2023-03-13T07:36:15.008Z,12.30
2023-03-13T07:38:43.803Z,12.30
2023-03-13T07:41:13.632Z,12.20
2023-03-13T07:43:41.204Z,12.30
2023-03-13T07:46:12.625Z,12.20
2023-03-13T07:48:42.476Z,12.30
2023-03-13T07:51:33.357Z,12.20
2023-03-13T07:54:07.840Z,12.20
2023-03-13T07:56:34.579Z,12.20
2023-03-13T07:59:01.396Z,12.30
2023-03-13T08:01:31.572Z,12.30
2023-03-13T08:04:01.618Z,12.30
2023-03-13T08:06:33.884Z,12.30
2023-03-13T08:09:18.642Z,12.40
2023-03-13T08:11:45.483Z,12.40
2023-03-13T08:14:12.976Z,12.50
2023-03-13T08:16:39.853Z,12.50
2023-03-13T08:19:10.836Z,12.70
2023-03-13T08:21:38.591Z,12.70
2023-03-13T08:24:14.766Z,12.60
2023-03-13T08:26:42.778Z,12.60
2023-03-13T08:29:13.666Z,12.60
2023-03-13T08:31:52.620Z,12.60
2023-03-13T08:34:20.291Z,12.60
2023-03-13T08:36:50.188Z,12.50
2023-03-13T08:39:19.755Z,12.50
2023-03-13T08:41:47.233Z,12.50
2023-03-13T08:44:17.222Z,12.50
2023-03-13T08:46:47.613Z,12.60
2023-03-13T08:49:14.437Z,12.60
2023-03-13T08:51:41.254Z,12.60
2023-03-13T08:54:08.225Z,12.60
2023-03-13T08:56:37.572Z,12.70
2023-03-13T08:59:06.944Z,12.60
2023-03-13T09:01:36.355Z,12.60
2023-03-13T09:04:05.299Z,12.70
2023-03-13T09:06:34.695Z,12.70
2023-03-13T09:09:06.671Z,12.80
2023-03-13T09:11:46.718Z,13.00
2023-03-13T09:14:13.533Z,13.10
2023-03-13T09:16:40.509Z,13.30
2023-03-13T09:19:07.482Z,13.50
2023-03-13T09:21:35.704Z,13.70
2023-03-13T09:24:02.934Z,13.70
2023-03-13T09:26:30.238Z,13.70
2023-03-13T09:28:57.717Z,13.80
2023-03-13T09:31:33.402Z,14.00
2023-03-13T09:34:01.252Z,14.00
2023-03-13T09:36:30.626Z,14.10
2023-03-13T09:38:59.773Z,14.20
2023-03-13T09:42:20.438Z,14.20
2023-03-13T09:45:04.018Z,14.30
2023-03-13T09:47:44.485Z,14.20
2023-03-13T09:50:27.601Z,14.30
2023-03-13T09:53:03.385Z,14.30
2023-03-13T09:55:36.635Z,14.40
2023-03-13T09:58:12.220Z,14.30
2023-03-13T10:00:41.621Z,14.40
2023-03-13T10:03:11.483Z,14.50
2023-03-13T10:05:46.800Z,14.70
2023-03-13T10:08:19.511Z,14.90
2023-03-13T10:11:11.121Z,14.90
2023-03-13T10:14:11.158Z,15.00
2023-03-13T10:17:23.383Z,14.90
2023-03-13T10:20:01.062Z,15.10
2023-03-13T10:22:31.646Z,15.10
2023-03-13T10:25:16.127Z,15.30
2023-03-13T10:27:53.732Z,15.30
2023-03-13T10:30:28.183Z,15.40
2023-03-13T10:33:25.250Z,15.40
2023-03-13T10:36:08.646Z,15.40
2023-03-13T10:38:52.348Z,15.60
2023-03-13T10:41:33.463Z,15.60
2023-03-13T10:44:08.545Z,15.90
2023-03-13T10:46:45.869Z,15.90
2023-03-13T10:49:19.901Z,16.00
2023-03-13T10:51:56.906Z,16.30
2023-03-13T10:54:37.460Z,16.20
2023-03-13T10:57:19.395Z,16.10
2023-03-13T10:59:49.740Z,15.90
2023-03-13T11:02:33.105Z,16.00
2023-03-13T11:05:00.105Z,15.90
2023-03-13T11:07:38.132Z,15.90
2023-03-13T11:10:13.955Z,15.90
2023-03-13T11:12:48.504Z,15.90
2023-03-13T11:15:35.301Z,16.00
2023-03-13T11:18:31.374Z,16.00
2023-03-13T11:21:12.176Z,15.90
2023-03-13T11:23:58.016Z,16.00
2023-03-13T11:26:52.431Z,16.10
2023-03-13T11:29:49.129Z,16.20
2023-03-13T11:32:32.258Z,16.40
2023-03-13T11:35:06.890Z,16.70
2023-03-13T11:37:40.618Z,16.50
2023-03-13T11:40:53.932Z,16.50
2023-03-13T11:44:02.041Z,16.40
2023-03-13T11:47:17.745Z,16.30
2023-03-13T11:50:22.171Z,16.20
2023-03-13T11:53:14.065Z,16.50
2023-03-13T11:56:21.827Z,16.50
2023-03-13T11:59:07.496Z,16.40
2023-03-13T12:01:46.491Z,16.30
2023-03-13T12:04:36.764Z,16.40
2023-03-13T12:07:29.164Z,16.30
2023-03-13T12:10:00.160Z,16.10
2023-03-13T12:13:10.252Z,15.80
2023-03-13T12:15:58.596Z,15.70
2023-03-13T12:18:45.864Z,15.70
2023-03-13T12:21:48.153Z,15.70
2023-03-13T12:24:40.483Z,16.00
2023-03-13T12:27:50.903Z,16.00
2023-03-13T12:30:48.715Z,16.10
2023-03-13T12:33:46.599Z,16.20
2023-03-13T12:36:43.674Z,16.30
2023-03-13T12:39:59.124Z,16.20
2023-03-13T12:43:00.623Z,16.20
2023-03-13T12:45:29.378Z,16.50
2023-03-13T12:48:41.515Z,16.40
2023-03-13T12:51:42.545Z,16.30
2023-03-13T12:54:50.246Z,16.50
2023-03-13T12:57:37.180Z,16.40
2023-03-13T13:00:16.418Z,16.10
2023-03-13T13:02:43.436Z,16.10
2023-03-13T13:05:23.271Z,16.10
2023-03-13T13:07:57.110Z,16.00
2023-03-13T13:10:27.461Z,16.10
2023-03-13T13:13:14.467Z,16.20
2023-03-13T13:16:19.616Z,16.40
2023-03-13T13:18:46.452Z,16.40
2023-03-13T13:21:16.446Z,16.10
2023-03-13T13:23:49.948Z,16.10
2023-03-13T13:26:29.611Z,16.20
2023-03-13T13:29:11.690Z,16.20
2023-03-13T13:31:58.832Z,16.20
2023-03-13T13:34:30.978Z,16.10
2023-03-13T13:37:20.241Z,16.30
2023-03-13T13:40:11.600Z,16.20
2023-03-13T13:42:46.909Z,16.20
2023-03-13T13:45:16.402Z,16.30
2023-03-13T13:47:47.845Z,16.30
2023-03-13T13:50:28.444Z,16.30
2023-03-13T13:53:34.673Z,16.10
2023-03-13T13:56:10.149Z,15.80
2023-03-13T13:58:44.004Z,15.90
2023-03-13T14:01:16.964Z,15.90
2023-03-13T14:03:44.490Z,15.80
2023-03-13T14:06:35.093Z,15.90
2023-03-13T14:09:48.414Z,15.70
2023-03-13T14:12:38.086Z,15.80
2023-03-13T14:15:22.396Z,16.00
2023-03-13T14:18:00.524Z,15.90
2023-03-13T14:20:52.926Z,15.80
2023-03-13T14:23:42.720Z,15.80
2023-03-13T14:26:17.683Z,15.80
2023-03-13T14:28:49.843Z,15.90
2023-03-13T14:31:33.440Z,15.90
2023-03-13T14:34:07.422Z,16.00
2023-03-13T14:36:57.147Z,15.90
2023-03-13T14:39:31.384Z,15.70
2023-03-13T14:42:05.892Z,15.60
2023-03-13T14:44:34.969Z,15.60
2023-03-13T14:47:09.197Z,15.70
2023-03-13T14:49:37.584Z,15.60
2023-03-13T14:52:24.594Z,15.70
2023-03-13T14:55:08.914Z,15.70
2023-03-13T14:57:36.876Z,15.70
2023-03-13T15:00:35.132Z,15.80
2023-03-13T15:03:17.274Z,16.00
2023-03-13T15:05:48.387Z,15.80
2023-03-13T15:08:22.395Z,15.70
2023-03-13T15:10:50.598Z,15.80
2023-03-13T15:13:31.757Z,15.70
2023-03-13T15:15:59.638Z,15.70
2023-03-13T15:18:30.857Z,15.70
2023-03-13T15:21:12.860Z,15.70
2023-03-13T15:23:49.836Z,15.80
2023-03-13T15:26:16.691Z,15.90
2023-03-13T15:28:45.893Z,15.90
2023-03-13T15:31:14.763Z,15.80
2023-03-13T15:33:43.681Z,15.80
2023-03-13T15:36:11.874Z,15.70
2023-03-13T15:38:40.102Z,15.70
2023-03-13T15:41:09.159Z,15.60
2023-03-13T15:43:36.331Z,15.60
2023-03-13T15:46:05.654Z,15.60
2023-03-13T15:48:32.654Z,15.60
2023-03-13T15:51:03.867Z,15.60
2023-03-13T15:53:35.780Z,15.40
2023-03-13T15:56:18.473Z,15.50
2023-03-13T15:58:47.519Z,15.40
2023-03-13T16:01:16.753Z,15.40
2023-03-13T16:03:43.742Z,15.30
2023-03-13T16:06:30.713Z,15.40
2023-03-13T16:09:03.236Z,15.30
2023-03-13T16:11:30.228Z,15.30
2023-03-13T16:13:59.395Z,15.30
2023-03-13T16:16:30.193Z,15.30
2023-03-13T16:19:00.881Z,15.30
2023-03-13T16:21:34.503Z,15.20
2023-03-13T16:24:03.754Z,15.30
2023-03-13T16:26:31.951Z,15.30
2023-03-13T16:28:59.551Z,15.10
2023-03-13T16:31:35.375Z,15.00
2023-03-13T16:34:07.929Z,14.80
2023-03-13T16:36:38.811Z,14.80
2023-03-13T16:39:14.770Z,14.60
2023-03-13T16:41:43.998Z,14.60
2023-03-13T16:44:17.427Z,14.50
2023-03-13T16:46:55.624Z,14.40
2023-03-13T16:49:31.051Z,14.30
2023-03-13T16:52:03.029Z,14.30
2023-03-13T16:54:32.826Z,14.20
2023-03-13T16:57:04.277Z,14.20
2023-03-13T16:59:34.040Z,14.20
2023-03-13T17:02:00.871Z,14.10
2023-03-13T17:04:30.895Z,14.00
2023-03-13T17:07:00.671Z,14.00
2023-03-13T17:09:28.856Z,13.90
2023-03-13T17:11:58.374Z,13.90
2023-03-13T17:14:25.122Z,13.80
2023-03-13T17:16:57.934Z,13.80
2023-03-13T17:19:27.380Z,13.60
2023-03-13T17:21:54.097Z,13.60
2023-03-13T17:24:20.904Z,13.50
2023-03-13T17:26:55.385Z,13.40
2023-03-13T17:29:23.634Z,13.40
2023-03-13T17:32:01.492Z,13.40
2023-03-13T17:34:31.115Z,13.30
2023-03-13T17:36:59.591Z,13.30
2023-03-13T17:39:26.314Z,13.20
2023-03-13T17:41:53.129Z,13.10
2023-03-13T17:44:19.931Z,13.20
2023-03-13T17:46:47.790Z,13.10
2023-03-13T17:49:20.246Z,13.10
2023-03-13T17:51:51.575Z,13.00
2023-03-13T17:54:18.848Z,13.00
2023-03-13T17:56:46.029Z,12.90
2023-03-13T17:59:19.456Z,12.90
2023-03-13T18:01:46.537Z,12.80
2023-03-13T18:04:13.489Z,12.80
2023-03-13T18:06:46.804Z,12.80
2023-03-13T18:09:22.076Z,12.80
2023-03-13T18:11:50.283Z,12.70
2023-03-13T18:14:17.098Z,12.70
2023-03-13T18:16:50.533Z,12.70
2023-03-13T18:19:22.688Z,12.60
2023-03-13T18:21:53.621Z,12.60
2023-03-13T18:24:28.560Z,12.50
2023-03-13T18:26:55.315Z,12.60
2023-03-13T18:29:27.924Z,12.60
2023-03-13T18:31:58.628Z,12.60
2023-03-13T18:34:34.027Z,12.50
2023-03-13T18:37:06.460Z,12.70
2023-03-13T18:39:33.518Z,12.70
2023-03-13T18:42:01.074Z,12.50
2023-03-13T18:44:27.840Z,12.50
2023-03-13T18:46:57.006Z,12.50
2023-03-13T18:49:24.704Z,12.40
2023-03-13T18:51:56.029Z,12.40
2023-03-13T18:54:24.864Z,12.40
2023-03-13T18:56:51.656Z,12.30
2023-03-13T18:59:23.498Z,12.30
2023-03-13T19:01:51.138Z,12.30
2023-03-13T19:04:19.266Z,12.30
2023-03-13T19:06:47.799Z,12.30
2023-03-13T19:09:42.272Z,12.20
2023-03-13T19:12:11.907Z,12.20
2023-03-13T19:14:38.865Z,12.20
2023-03-13T19:17:14.438Z,12.10
2023-03-13T19:19:41.259Z,12.10
2023-03-13T19:22:13.421Z,12.10
2023-03-13T19:24:40.717Z,12.10
2023-03-13T19:27:07.597Z,12.20
2023-03-13T19:29:37.521Z,12.10
2023-03-13T19:32:07.130Z,12.20
2023-03-13T19:34:33.928Z,12.20
2023-03-13T19:37:00.684Z,12.20
2023-03-13T19:39:27.594Z,12.10
2023-03-13T19:41:54.784Z,12.10
2023-03-13T19:44:24.777Z,12.10
2023-03-13T19:46:54.603Z,12.00
2023-03-13T19:49:21.587Z,12.00
2023-03-13T19:51:48.760Z,12.00
2023-03-13T19:54:15.992Z,12.00
2023-03-13T19:56:46.913Z,12.00
2023-03-13T19:59:26.781Z,12.00
2023-03-13T20:01:55.766Z,12.00
2023-03-13T20:04:27.255Z,12.00
2023-03-13T20:06:54.006Z,11.90
2023-03-13T20:09:21.403Z,11.90
2023-03-13T20:11:48.208Z,11.80
2023-03-13T20:14:18.476Z,11.90
2023-03-13T20:16:53.286Z,11.80
2023-03-13T20:19:21.395Z,11.90
2023-03-13T20:21:48.095Z,11.90
2023-03-13T20:24:16.970Z,11.90
2023-03-13T20:26:43.710Z,11.80
2023-03-13T20:29:10.414Z,11.90
2023-03-13T20:31:37.330Z,11.80
2023-03-13T20:34:04.057Z,11.80
2023-03-13T20:36:30.836Z,11.80
2023-03-13T20:39:00.803Z,11.80
2023-03-13T20:41:31.182Z,11.80
2023-03-13T20:44:00.194Z,11.90
2023-03-13T20:46:29.090Z,11.60
2023-03-13T20:48:58.452Z,11.60
2023-03-13T20:51:26.050Z,11.60
2023-03-13T20:53:52.755Z,11.50
2023-03-13T20:56:19.574Z,11.60
2023-03-13T20:58:46.404Z,11.70
2023-03-13T21:01:27.603Z,11.70
2023-03-13T21:03:57.332Z,11.70
2023-03-13T21:06:30.160Z,11.60
2023-03-13T21:08:56.969Z,11.70
2023-03-13T21:11:27.112Z,11.60
2023-03-13T21:13:56.866Z,11.60
2023-03-13T21:16:25.733Z,11.60
2023-03-13T21:18:52.799Z,11.60
2023-03-13T21:21:22.340Z,11.70
2023-03-13T21:23:51.988Z,11.60
2023-03-13T21:26:19.687Z,11.70
2023-03-13T21:28:53.947Z,11.70
2023-03-13T21:31:20.859Z,11.70
2023-03-13T21:33:48.847Z,11.70
2023-03-13T21:36:20.784Z,11.70
2023-03-13T21:38:49.666Z,11.70
2023-03-13T21:41:20.754Z,11.70
2023-03-13T21:43:49.037Z,11.70
2023-03-13T21:46:18.294Z,11.70
2023-03-13T21:48:48.279Z,11.70
2023-03-13T21:51:15.881Z,11.70
2023-03-13T21:53:46.671Z,11.70
2023-03-13T21:56:15.520Z,11.80
2023-03-13T21:58:43.764Z,11.80
2023-03-13T22:01:10.945Z,11.80
2023-03-13T22:03:38.021Z,11.90
2023-03-13T22:06:12.298Z,11.90
2023-03-13T22:08:43.019Z,11.90
2023-03-13T22:11:10.359Z,11.90
2023-03-13T22:13:42.473Z,11.90
2023-03-13T22:16:12.141Z,11.90
2023-03-13T22:18:40.646Z,11.90
2023-03-13T22:21:14.933Z,11.90
2023-03-13T22:23:41.682Z,11.80
2023-03-13T22:26:11.463Z,11.80
2023-03-13T22:28:38.927Z,11.80
2023-03-13T22:31:08.293Z,11.80
2023-03-13T22:33:37.152Z,11.80
2023-03-13T22:36:05.360Z,11.80
2023-03-13T22:38:36.077Z,11.80
2023-03-13T22:41:06.929Z,11.90
2023-03-13T22:43:34.163Z,11.80
2023-03-13T22:46:04.374Z,11.80
2023-03-13T22:48:36.178Z,11.80
2023-03-13T22:51:08.829Z,11.90
2023-03-13T22:53:38.171Z,11.90
2023-03-13T22:56:06.341Z,11.90
2023-03-13T22:58:34.263Z,11.90
2023-03-13T23:01:09.586Z,12.00
2023-03-13T23:03:36.478Z,12.00
2023-03-13T23:06:09.031Z,11.90
2023-03-13T23:08:36.402Z,11.80
2023-03-13T23:11:06.769Z,11.80
2023-03-13T23:13:36.819Z,11.80
2023-03-13T23:16:09.371Z,11.60
2023-03-13T23:18:37.374Z,11.40
2023-03-13T23:21:12.210Z,11.30
2023-03-13T23:23:40.393Z,11.30
2023-03-13T23:26:14.247Z,11.20
2023-03-13T23:28:41.362Z,11.10
2023-03-13T23:31:19.941Z,11.10
2023-03-13T23:33:48.230Z,11.10
2023-03-13T23:36:19.320Z,11.00
2023-03-13T23:38:51.200Z,10.90
2023-03-13T23:41:18.504Z,10.90
2023-03-13T23:43:45.301Z,10.90
2023-03-13T23:46:26.232Z,10.90
2023-03-13T23:48:58.401Z,10.90
2023-03-13T23:51:26.287Z,11.00
2023-03-13T23:53:53.295Z,11.00
2023-03-13T23:56:23.101Z,11.00
2023-03-13T23:58:49.820Z,10.90
